Averill Park, New York
Current Conditions -  °F | °C
As of 4:51 PM on Monday 26 Jan 2015 (Local Time) from KALB Reporting Station
Light Snow Light Snow  
Wind Chill:   Ceiling: 3200
Heat Index: 17°   Visibility: 2mi
Dew Point:   Wind: 8mph
Humidity: 59%   Direction: 10°N
Pressure: 30.02"   Gusts: NA
Location:  42.64°N, 73.55°W
Report Text: KALB 262151Z 01007KT 2SM -SN OVC032 M08/M15 A3002 RMK AO2 SLP172 P0000 T10831150
Loading
Personal Weather Stations






























Interactive Weather Map New forecast layout! Learn more

10-Day Weather Forecast

Advertisements
Track Severe Weather on mobile